createdAt,value
2023-04-19T00:00:24.860Z,99927.53
2023-04-19T00:01:01.893Z,99924.03
2023-04-19T00:01:36.766Z,99924.28
2023-04-19T00:02:09.155Z,99923.22
2023-04-19T00:02:42.760Z,99926.72
2023-04-19T00:03:18.408Z,99919.72
2023-04-19T00:03:51.100Z,99917.03
2023-04-19T00:04:23.718Z,99921.34
2023-04-19T00:04:58.725Z,99929.97
2023-04-19T00:05:31.737Z,99918.63
2023-04-19T00:06:04.653Z,99923.75
2023-04-19T00:06:41.303Z,99918.38
2023-04-19T00:07:13.905Z,99918.38
2023-04-19T00:07:47.335Z,99922.97
2023-04-19T00:08:22.100Z,99919.19
2023-04-19T00:08:54.349Z,99923.75
2023-04-19T00:09:26.566Z,99925.34
2023-04-19T00:10:01.348Z,99921.88
2023-04-19T00:10:36.093Z,99922.66
2023-04-19T00:11:08.586Z,99919.19
2023-04-19T00:11:44.089Z,99926.47
2023-04-19T00:12:16.309Z,99922.16
2023-04-19T00:12:48.604Z,99921.88
2023-04-19T00:13:23.484Z,99919.97
2023-04-19T00:13:55.708Z,99925.34
2023-04-19T00:14:28.030Z,99922.66
2023-04-19T00:15:02.794Z,99922.66
2023-04-19T00:15:35.323Z,99923.75
2023-04-19T00:16:10.476Z,99925.34
2023-04-19T00:16:45.382Z,99915.94
2023-04-19T00:17:17.670Z,99918.38
2023-04-19T00:17:49.883Z,99924.84
2023-04-19T00:18:24.691Z,99921.06
2023-04-19T00:18:56.876Z,99915.13
2023-04-19T00:19:29.146Z,99915.13
2023-04-19T00:20:04.077Z,99915.13
2023-04-19T00:20:36.534Z,99910.56
2023-04-19T00:21:08.821Z,99913.50
2023-04-19T00:21:43.632Z,99912.44
2023-04-19T00:22:15.941Z,99911.91
2023-04-19T00:22:48.333Z,99915.41
2023-04-19T00:23:20.685Z,99919.19
2023-04-19T00:23:56.777Z,99919.19
2023-04-19T00:24:29.169Z,99916.75
2023-04-19T00:25:01.657Z,99918.38
2023-04-19T00:25:37.369Z,99916.50
2023-04-19T00:26:11.629Z,99914.06
2023-04-19T00:26:44.744Z,99912.44
2023-04-19T00:27:19.496Z,99916.75
2023-04-19T00:27:51.785Z,99915.16
2023-04-19T00:28:25.509Z,99914.06
2023-04-19T00:29:00.721Z,99912.44
2023-04-19T00:29:32.986Z,99908.13
2023-04-19T00:30:06.553Z,99914.63
2023-04-19T00:30:41.387Z,99913.81
2023-04-19T00:31:18.771Z,99907.34
2023-04-19T00:31:51.082Z,99907.63
2023-04-19T00:32:26.288Z,99902.22
2023-04-19T00:32:58.823Z,99909.47
2023-04-19T00:33:31.141Z,99902.47
2023-04-19T00:34:06.542Z,99898.94
2023-04-19T00:34:38.834Z,99901.13
2023-04-19T00:35:11.206Z,99899.50
2023-04-19T00:35:46.185Z,99906.78
2023-04-19T00:36:18.948Z,99895.47
2023-04-19T00:36:52.584Z,99902.75
2023-04-19T00:37:27.337Z,99907.06
2023-04-19T00:37:59.579Z,99901.13
2023-04-19T00:38:31.793Z,99898.69
2023-04-19T00:39:04.161Z,99892.50
2023-04-19T00:39:39.212Z,99893.59
2023-04-19T00:40:12.472Z,99897.38
2023-04-19T00:40:44.675Z,99900.34
2023-04-19T00:41:19.508Z,99896.81
2023-04-19T00:41:51.720Z,99902.78
2023-04-19T00:42:24.261Z,99893.88
2023-04-19T00:42:59.069Z,99903.59
2023-04-19T00:43:31.360Z,99903.03
2023-04-19T00:44:03.566Z,99898.75
2023-04-19T00:44:38.522Z,99897.13
2023-04-19T00:45:12.033Z,99899.81
2023-04-19T00:45:44.333Z,99898.19
2023-04-19T00:46:23.680Z,99898.19
2023-04-19T00:46:57.121Z,99893.38
2023-04-19T00:47:29.431Z,99892.25
2023-04-19T00:48:04.493Z,99895.75
2023-04-19T00:48:36.956Z,99895.75
2023-04-19T00:49:10.090Z,99891.75
2023-04-19T00:49:44.952Z,99896.06
2023-04-19T00:50:17.179Z,99898.75
2023-04-19T00:50:49.583Z,99902.25
2023-04-19T00:51:27.471Z,99894.44
2023-04-19T00:51:59.807Z,99889.03
2023-04-19T00:52:33.733Z,99898.75
2023-04-19T00:53:08.678Z,99893.38
2023-04-19T00:53:41.701Z,99897.94
2023-04-19T00:54:14.457Z,99896.31
2023-04-19T00:54:49.733Z,99891.75
2023-04-19T00:55:23.043Z,99901.72
2023-04-19T00:55:57.811Z,99890.38
2023-04-19T00:56:33.706Z,99891.47
2023-04-19T00:57:06.074Z,99898.75
2023-04-19T00:57:38.353Z,99892.28
2023-04-19T00:58:10.603Z,99892.56
2023-04-19T00:58:45.416Z,99896.06
2023-04-19T00:59:18.416Z,99889.06
2023-04-19T00:59:51.714Z,99892.28
2023-04-19T01:00:26.469Z,99886.09
2023-04-19T01:01:00.097Z,99882.31
2023-04-19T01:01:35.110Z,99890.38
2023-04-19T01:02:10.342Z,99886.63
2023-04-19T01:02:43.004Z,99893.63
2023-04-19T01:03:17.319Z,99892.56
2023-04-19T01:03:52.331Z,99894.19
2023-04-19T01:04:26.536Z,99889.84
2023-04-19T01:04:58.986Z,99887.97
2023-04-19T01:05:31.314Z,99890.38
2023-04-19T01:06:06.183Z,99879.59
2023-04-19T01:06:40.822Z,99891.19
2023-04-19T01:07:15.289Z,99886.63
2023-04-19T01:07:48.512Z,99892.81
2023-04-19T01:08:23.325Z,99880.41
2023-04-19T01:08:59.411Z,99883.41
2023-04-19T01:09:31.769Z,99893.06
2023-04-19T01:10:06.968Z,99887.97
2023-04-19T01:10:39.242Z,99879.91
2023-04-19T01:11:11.460Z,99875.31
2023-04-19T01:11:46.709Z,99882.28
2023-04-19T01:12:20.537Z,99880.72
2023-04-19T01:12:52.769Z,99877.19
2023-04-19T01:13:28.164Z,99878.53
2023-04-19T01:14:00.383Z,99879.59
2023-04-19T01:14:32.566Z,99875.84
2023-04-19T01:15:08.332Z,99871.25
2023-04-19T01:15:40.525Z,99867.75
2023-04-19T01:16:12.989Z,99875.84
2023-04-19T01:16:50.873Z,99875.03
2023-04-19T01:17:23.465Z,99875.03
2023-04-19T01:17:57.058Z,99880.16
2023-04-19T01:18:37.514Z,99876.91
2023-04-19T01:19:10.587Z,99871.00
2023-04-19T01:19:42.840Z,99872.63
2023-04-19T01:20:15.617Z,99869.63
2023-04-19T01:20:50.447Z,99868.03
2023-04-19T01:21:22.796Z,99875.31
2023-04-19T01:21:56.620Z,99870.72
2023-04-19T01:22:34.360Z,99869.94
2023-04-19T01:23:06.655Z,99870.19
2023-04-19T01:23:39.612Z,99864.00
2023-04-19T01:24:14.586Z,99868.31
2023-04-19T01:24:47.020Z,99865.63
2023-04-19T01:25:20.462Z,99864.00
2023-04-19T01:25:55.304Z,99868.31
2023-04-19T01:26:27.530Z,99868.56
2023-04-19T01:26:59.949Z,99864.81
2023-04-19T01:27:36.012Z,99875.59
2023-04-19T01:28:08.302Z,99872.06
2023-04-19T01:28:40.649Z,99867.75
2023-04-19T01:29:16.031Z,99872.06
2023-04-19T01:29:49.801Z,99868.84
2023-04-19T01:30:22.939Z,99871.53
2023-04-19T01:30:55.277Z,99867.25
2023-04-19T01:31:30.191Z,99869.13
2023-04-19T01:32:02.402Z,99871.28
2023-04-19T01:32:34.660Z,99875.84
2023-04-19T01:33:06.926Z,99871.81
2023-04-19T01:33:41.774Z,99871.81
2023-04-19T01:34:15.010Z,99872.38
2023-04-19T01:34:47.831Z,99866.44
2023-04-19T01:35:22.609Z,99868.31
2023-04-19T01:35:56.065Z,99873.19
2023-04-19T01:36:28.238Z,99868.88
2023-04-19T01:37:00.427Z,99867.25
2023-04-19T01:37:40.625Z,99864.03
2023-04-19T01:38:15.823Z,99865.63
2023-04-19T01:38:48.158Z,99866.44
2023-04-19T01:39:23.001Z,99870.25
2023-04-19T01:39:55.194Z,99869.69
2023-04-19T01:40:27.774Z,99868.88
2023-04-19T01:41:02.524Z,99867.25
2023-04-19T01:41:36.819Z,99871.06
2023-04-19T01:42:09.049Z,99871.31
2023-04-19T01:42:44.787Z,99865.94
2023-04-19T01:43:18.638Z,99866.19
2023-04-19T01:43:50.961Z,99868.88
2023-04-19T01:44:25.860Z,99870.75
2023-04-19T01:44:58.694Z,99868.34
2023-04-19T01:45:34.155Z,99864.84
2023-04-19T01:46:09.079Z,99864.84
2023-04-19T01:46:43.578Z,99863.50
2023-04-19T01:47:15.898Z,99863.50
2023-04-19T01:47:50.678Z,99859.72
2023-04-19T01:48:22.884Z,99860.03
2023-04-19T01:48:55.095Z,99857.34
2023-04-19T01:49:30.057Z,99853.00
2023-04-19T01:50:02.351Z,99858.66
2023-04-19T01:50:35.540Z,99861.34
2023-04-19T01:51:12.680Z,99856.22
2023-04-19T01:51:44.917Z,99861.59
2023-04-19T01:52:17.079Z,99857.31
2023-04-19T01:52:54.571Z,99859.22
2023-04-19T01:53:26.758Z,99858.66
2023-04-19T01:53:58.945Z,99852.19
2023-04-19T01:54:33.749Z,99858.66
2023-04-19T01:55:06.304Z,99854.34
2023-04-19T01:55:39.041Z,99857.03
2023-04-19T01:56:13.914Z,99852.75
2023-04-19T01:56:46.081Z,99855.69
2023-04-19T01:57:19.107Z,99854.88
2023-04-19T01:57:56.203Z,99848.19
2023-04-19T01:58:28.866Z,99844.13
2023-04-19T01:59:01.084Z,99854.88
2023-04-19T01:59:35.945Z,99852.19
2023-04-19T02:00:09.682Z,99854.38
2023-04-19T02:00:47.569Z,99851.94
2023-04-19T02:01:22.620Z,99854.09
2023-04-19T02:01:54.995Z,99856.78
2023-04-19T02:02:27.329Z,99857.88
2023-04-19T02:03:02.351Z,99851.66
2023-04-19T02:03:34.881Z,99860.00
2023-04-19T02:04:08.008Z,99856.78
2023-04-19T02:04:40.278Z,99855.16
2023-04-19T02:05:15.069Z,99857.84
2023-04-19T02:05:47.269Z,99852.72
2023-04-19T02:06:19.436Z,99851.91
2023-04-19T02:06:54.377Z,99855.44
2023-04-19T02:07:26.569Z,99855.16
2023-04-19T02:08:01.927Z,99856.78
2023-04-19T02:08:38.806Z,99859.72
2023-04-19T02:09:11.230Z,99848.16
2023-04-19T02:09:43.607Z,99839.56
2023-04-19T02:10:18.420Z,99856.78
2023-04-19T02:10:50.831Z,99853.28
2023-04-19T02:11:23.056Z,99854.09
2023-04-19T02:11:57.941Z,99852.72
2023-04-19T02:12:31.287Z,99849.50
2023-04-19T02:13:03.512Z,99856.50
2023-04-19T02:13:36.062Z,99850.56
2023-04-19T02:14:10.890Z,99853.25
2023-04-19T02:14:43.127Z,99848.44
2023-04-19T02:15:15.807Z,99848.44
2023-04-19T02:15:50.730Z,99844.13
2023-04-19T02:16:23.326Z,99840.09
2023-04-19T02:16:56.187Z,99841.97
2023-04-19T02:17:31.431Z,99844.91
2023-04-19T02:18:07.096Z,99847.84
2023-04-19T02:18:39.673Z,99850.03
2023-04-19T02:19:14.426Z,99850.03
2023-04-19T02:19:46.726Z,99848.41
2023-04-19T02:20:19.066Z,99857.53
2023-04-19T02:20:54.866Z,99846.78
2023-04-19T02:21:27.761Z,99846.25
2023-04-19T02:22:02.563Z,99847.31
2023-04-19T02:22:34.857Z,99848.38
2023-04-19T02:23:09.623Z,99851.09
2023-04-19T02:23:44.527Z,99852.16
2023-04-19T02:24:17.101Z,99847.88
2023-04-19T02:24:51.018Z,99853.50
2023-04-19T02:25:25.798Z,99846.25
2023-04-19T02:25:58.255Z,99844.88
2023-04-19T02:26:30.618Z,99848.38
2023-04-19T02:27:06.118Z,99843.00
2023-04-19T02:27:38.394Z,99849.72
2023-04-19T02:28:10.821Z,99846.22
2023-04-19T02:28:45.906Z,99848.09
2023-04-19T02:29:18.743Z,99847.28
2023-04-19T02:29:50.931Z,99843.00
2023-04-19T02:30:26.197Z,99844.59
2023-04-19T02:30:58.459Z,99844.91
2023-04-19T02:31:30.931Z,99848.41
2023-04-19T02:32:07.090Z,99849.19
2023-04-19T02:32:39.502Z,99844.91
2023-04-19T02:33:12.731Z,99849.47
2023-04-19T02:33:48.992Z,99847.59
2023-04-19T02:34:21.250Z,99847.03
2023-04-19T02:34:53.612Z,99847.84
2023-04-19T02:35:28.708Z,99855.91
2023-04-19T02:36:04.188Z,99843.81
2023-04-19T02:36:36.369Z,99840.31
2023-04-19T02:37:11.140Z,99843.81
2023-04-19T02:37:44.223Z,99843.81
2023-04-19T02:38:18.976Z,99849.19
2023-04-19T02:38:54.366Z,99845.94
2023-04-19T02:39:26.632Z,99854.00
2023-04-19T02:39:58.829Z,99845.94
2023-04-19T02:40:35.783Z,99847.81
2023-04-19T02:41:08.319Z,99844.59
2023-04-19T02:41:44.550Z,99846.75
2023-04-19T02:42:19.288Z,99852.13
2023-04-19T02:42:51.495Z,99847.28
2023-04-19T02:43:23.759Z,99848.63
2023-04-19T02:43:58.556Z,99848.09
2023-04-19T02:44:30.749Z,99853.47
2023-04-19T02:45:03.062Z,99852.66
2023-04-19T02:45:37.856Z,99852.66
2023-04-19T02:46:10.876Z,99850.22
2023-04-19T02:46:48.422Z,99850.22
2023-04-19T02:47:23.232Z,99851.56
2023-04-19T02:47:55.556Z,99858.81
2023-04-19T02:48:28.586Z,99852.63
2023-04-19T02:49:03.933Z,99851.00
2023-04-19T02:49:38.147Z,99854.72
2023-04-19T02:50:12.093Z,99851.22
2023-04-19T02:50:52.950Z,99859.03
2023-04-19T02:51:25.304Z,99849.91
2023-04-19T02:51:57.648Z,99857.97
2023-04-19T02:52:29.882Z,99853.66
2023-04-19T02:53:04.679Z,99859.03
2023-04-19T02:53:39.988Z,99853.66
2023-04-19T02:54:12.663Z,99860.09
2023-04-19T02:54:48.654Z,99853.13
2023-04-19T02:55:21.200Z,99850.44
2023-04-19T02:55:58.882Z,99851.50
2023-04-19T02:56:33.840Z,99852.81
2023-04-19T02:57:07.333Z,99856.31
2023-04-19T02:57:39.975Z,99857.41
2023-04-19T02:58:17.006Z,99856.31
2023-04-19T02:59:01.323Z,99858.72
2023-04-19T02:59:36.371Z,99862.22
2023-04-19T03:00:11.428Z,99858.97
2023-04-19T03:00:46.514Z,99863.28
2023-04-19T03:01:21.701Z,99858.97
2023-04-19T03:01:56.619Z,99860.59
2023-04-19T03:02:30.243Z,99859.78
2023-04-19T03:03:04.361Z,99860.59
2023-04-19T03:03:40.809Z,99857.09
2023-04-19T03:04:13.341Z,99855.50
2023-04-19T03:04:47.456Z,99858.97
2023-04-19T03:05:22.929Z,99854.69
2023-04-19T03:05:55.389Z,99852.00
2023-04-19T03:06:28.076Z,99853.59
2023-04-19T03:07:02.921Z,99853.59
2023-04-19T03:07:35.850Z,99858.19
2023-04-19T03:08:08.359Z,99857.09
2023-04-19T03:08:45.919Z,99850.91
2023-04-19T03:09:18.304Z,99851.19
2023-04-19T03:09:51.133Z,99851.19
2023-04-19T03:10:25.341Z,99850.38
2023-04-19T03:11:01.521Z,99860.88
2023-04-19T03:11:37.144Z,99857.63
2023-04-19T03:12:09.473Z,99857.38
2023-04-19T03:12:44.265Z,99856.56
2023-04-19T03:13:17.015Z,99854.94
2023-04-19T03:13:49.207Z,99855.75
2023-04-19T03:14:23.981Z,99852.81
2023-04-19T03:14:56.276Z,99854.94
2023-04-19T03:15:28.650Z,99855.75
2023-04-19T03:16:03.482Z,99853.88
2023-04-19T03:16:38.645Z,99850.38
2023-04-19T03:17:11.258Z,99849.31
2023-04-19T03:17:46.459Z,99849.31
2023-04-19T03:18:18.778Z,99845.00
2023-04-19T03:18:51.792Z,99851.19
2023-04-19T03:19:30.740Z,99846.34
2023-04-19T03:20:02.960Z,99843.94
2023-04-19T03:20:35.996Z,99840.69
2023-04-19T03:21:11.235Z,99843.38
2023-04-19T03:21:57.556Z,99844.97
2023-04-19T03:22:29.855Z,99839.59
2023-04-19T03:23:04.712Z,99839.59
2023-04-19T03:23:37.879Z,99842.03
2023-04-19T03:24:12.812Z,99835.59
2023-04-19T03:24:52.038Z,99833.97
2023-04-19T03:25:28.059Z,99837.47
2023-04-19T03:26:09.441Z,99829.91
2023-04-19T03:26:49.392Z,99832.59
2023-04-19T03:27:25.890Z,99830.19
2023-04-19T03:28:06.440Z,99836.38
2023-04-19T03:29:01.723Z,99835.81
2023-04-19T03:29:44.395Z,99837.16
2023-04-19T03:30:18.311Z,99835.84
2023-04-19T03:30:50.576Z,99832.91
2023-04-19T03:31:25.457Z,99835.88
2023-04-19T03:31:58.956Z,99830.50
2023-04-19T03:32:31.920Z,99833.47
2023-04-19T03:33:08.744Z,99834.00
2023-04-19T03:33:41.200Z,99831.31
2023-04-19T03:34:14.863Z,99835.34
2023-04-19T03:34:52.842Z,99834.28
2023-04-19T03:35:26.537Z,99834.81
2023-04-19T03:36:00.778Z,99834.81
2023-04-19T03:36:35.884Z,99838.06
2023-04-19T03:37:08.416Z,99840.75
2023-04-19T03:37:41.181Z,99839.69
2023-04-19T03:38:17.695Z,99834.31
2023-04-19T03:38:49.998Z,99836.72
2023-04-19T03:39:26.702Z,99829.47
2023-04-19T03:40:07.216Z,99838.03
2023-04-19T03:40:39.898Z,99833.47
2023-04-19T03:41:20.939Z,99836.44
2023-04-19T03:41:56.360Z,99832.13
2023-04-19T03:42:51.378Z,99828.09
2023-04-19T03:43:41.615Z,99833.72
2023-04-19T03:44:14.163Z,99833.22
2023-04-19T03:44:51.900Z,99831.31
2023-04-19T03:45:24.731Z,99836.44
2023-04-19T03:45:57.002Z,99832.69
2023-04-19T03:46:32.399Z,99833.22
2023-04-19T03:47:05.469Z,99823.25
2023-04-19T03:47:44.065Z,99829.41
2023-04-19T03:48:18.960Z,99830.50
2023-04-19T03:48:51.506Z,99829.97
2023-04-19T03:49:25.071Z,99827.53
2023-04-19T03:50:10.642Z,99827.81
2023-04-19T03:50:44.347Z,99828.88
2023-04-19T03:51:22.612Z,99826.19
2023-04-19T03:51:54.810Z,99831.56
2023-04-19T03:52:27.563Z,99833.69
2023-04-19T03:53:02.442Z,99827.78
2023-04-19T03:53:34.651Z,99823.72
2023-04-19T03:54:06.860Z,99833.94
2023-04-19T03:54:44.232Z,99834.75
2023-04-19T03:55:28.742Z,99835.53
2023-04-19T03:56:03.802Z,99831.25
2023-04-19T03:56:37.320Z,99833.69
2023-04-19T03:57:10.046Z,99828.84
2023-04-19T03:57:47.412Z,99835.84
2023-04-19T03:58:25.527Z,99833.16
2023-04-19T03:59:03.970Z,99830.22
2023-04-19T03:59:41.568Z,99836.13
2023-04-19T04:00:15.709Z,99838.56
2023-04-19T04:00:47.915Z,99836.41
2023-04-19T04:01:21.586Z,99836.97
2023-04-19T04:01:57.917Z,99833.19
2023-04-19T04:02:30.261Z,99832.91
2023-04-19T04:03:02.786Z,99828.34
2023-04-19T04:03:38.118Z,99831.59
2023-04-19T04:04:12.102Z,99834.00
2023-04-19T04:04:45.581Z,99837.25
2023-04-19T04:05:21.989Z,99838.59
2023-04-19T04:05:54.236Z,99834.03
2023-04-19T04:06:27.122Z,99840.47
2023-04-19T04:07:02.626Z,99825.97
2023-04-19T04:07:34.891Z,99837.31
2023-04-19T04:08:10.369Z,99838.13
2023-04-19T04:08:45.170Z,99840.53
2023-04-19T04:09:17.407Z,99834.09
2023-04-19T04:09:52.416Z,99839.22
2023-04-19T04:10:27.731Z,99830.34
2023-04-19T04:11:00.007Z,99834.66
2023-04-19T04:11:32.352Z,99832.75
2023-04-19T04:12:07.484Z,99834.38
2023-04-19T04:12:39.836Z,99833.84
2023-04-19T04:13:14.194Z,99838.41
2023-04-19T04:13:56.613Z,99834.09
2023-04-19T04:14:32.951Z,99835.16
2023-04-19T04:15:06.860Z,99838.66
2023-04-19T04:15:44.196Z,99833.28
2023-04-19T04:16:18.181Z,99836.78
2023-04-19T04:16:50.759Z,99831.41
2023-04-19T04:17:26.261Z,99835.72
2023-04-19T04:17:59.223Z,99833.84
2023-04-19T04:18:32.429Z,99833.03
2023-04-19T04:19:07.597Z,99835.44
2023-04-19T04:19:42.744Z,99834.91
2023-04-19T04:20:15.453Z,99835.72
2023-04-19T04:20:48.241Z,99834.66
2023-04-19T04:21:24.466Z,99840.81
2023-04-19T04:21:56.800Z,99835.72
2023-04-19T04:22:31.994Z,99836.53
2023-04-19T04:23:04.699Z,99835.72
2023-04-19T04:23:38.014Z,99833.84
2023-04-19T04:24:16.391Z,99836.78
2023-04-19T04:25:03.366Z,99838.38
2023-04-19T04:25:45.392Z,99836.50
2023-04-19T04:26:20.388Z,99835.69
2023-04-19T04:27:03.446Z,99839.19
2023-04-19T04:27:41.649Z,99837.31
2023-04-19T04:28:18.124Z,99836.50
2023-04-19T04:28:50.962Z,99835.44
2023-04-19T04:29:26.878Z,99834.34
2023-04-19T04:30:01.873Z,99837.03
2023-04-19T04:30:38.176Z,99834.91
2023-04-19T04:31:13.196Z,99832.22
2023-04-19T04:31:46.529Z,99826.84
2023-04-19T04:32:24.046Z,99830.06
2023-04-19T04:33:01.656Z,99835.69
2023-04-19T04:33:34.423Z,99830.06
2023-04-19T04:34:09.378Z,99836.53
2023-04-19T04:34:46.191Z,99833.03
2023-04-19T04:35:24.828Z,99830.06
2023-04-19T04:36:06.144Z,99829.53
2023-04-19T04:36:42.006Z,99826.03
2023-04-19T04:37:14.538Z,99829.81
2023-04-19T04:37:49.591Z,99827.41
2023-04-19T04:38:25.104Z,99832.50
2023-04-19T04:39:02.069Z,99818.81
2023-04-19T04:39:39.540Z,99831.16
2023-04-19T04:40:16.008Z,99831.72
2023-04-19T04:40:50.912Z,99833.34
2023-04-19T04:41:25.726Z,99837.38
2023-04-19T04:42:00.660Z,99826.34
2023-04-19T04:42:33.688Z,99829.56
2023-04-19T04:43:08.667Z,99831.19
2023-04-19T04:43:41.120Z,99827.44
2023-04-19T04:44:13.572Z,99834.16
2023-04-19T04:44:51.257Z,99830.66
2023-04-19T04:45:23.542Z,99831.19
2023-04-19T04:45:58.245Z,99836.31
2023-04-19T04:46:36.934Z,99838.19
2023-04-19T04:47:09.135Z,99835.22
2023-04-19T04:47:47.916Z,99837.91
2023-04-19T04:48:24.135Z,99831.72
2023-04-19T04:48:56.386Z,99837.91
2023-04-19T04:49:28.601Z,99841.41
2023-04-19T04:50:05.343Z,99843.84
2023-04-19T04:50:37.995Z,99845.72
2023-04-19T04:51:12.913Z,99833.34
2023-04-19T04:51:47.093Z,99847.59
2023-04-19T04:52:19.245Z,99833.09
2023-04-19T04:53:03.339Z,99838.72
2023-04-19T04:53:37.374Z,99833.34
2023-04-19T04:54:11.375Z,99839.53
2023-04-19T04:54:46.593Z,99836.59
2023-04-19T04:55:30.170Z,99836.03
2023-04-19T04:56:05.191Z,99834.97
2023-04-19T04:56:37.651Z,99841.16
2023-04-19T04:57:10.565Z,99830.13
2023-04-19T04:57:45.332Z,99841.44
2023-04-19T04:58:23.403Z,99836.31
2023-04-19T04:59:11.538Z,99837.41
2023-04-19T04:59:48.364Z,99840.91
2023-04-19T05:00:23.116Z,99841.44
2023-04-19T05:01:19.668Z,99834.72
2023-04-19T05:01:52.888Z,99839.81
2023-04-19T05:02:25.852Z,99847.34
2023-04-19T05:03:02.551Z,99846.00
2023-04-19T05:03:36.630Z,99846.56
2023-04-19T05:04:11.284Z,99843.56
2023-04-19T05:04:46.251Z,99846.81
2023-04-19T05:05:18.758Z,99844.94
2023-04-19T05:05:51.238Z,99841.97
2023-04-19T05:06:26.764Z,99843.59
2023-04-19T05:06:59.338Z,99841.72
2023-04-19T05:07:33.012Z,99843.31
2023-04-19T05:08:10.268Z,99843.84
2023-04-19T05:08:44.683Z,99845.47
2023-04-19T05:09:40.929Z,99840.91
2023-04-19T05:10:13.222Z,99836.06
2023-04-19T05:10:52.558Z,99843.59
2023-04-19T05:11:30.335Z,99838.75
2023-04-19T05:12:02.500Z,99841.16
2023-04-19T05:12:36.993Z,99839.03
2023-04-19T05:13:12.265Z,99848.44
2023-04-19T05:13:45.941Z,99853.56
2023-04-19T05:14:19.299Z,99843.59
2023-04-19T05:14:54.094Z,99838.75
2023-04-19T05:15:26.373Z,99843.88
2023-04-19T05:16:00.646Z,99848.97
2023-04-19T05:16:36.354Z,99848.44
2023-04-19T05:17:09.540Z,99844.38
2023-04-19T05:17:45.585Z,99841.97
2023-04-19T05:18:18.744Z,99844.41
2023-04-19T05:18:50.924Z,99849.22
2023-04-19T05:19:26.857Z,99841.69
2023-04-19T05:20:07.243Z,99844.91
2023-04-19T05:20:41.171Z,99847.09
2023-04-19T05:21:29.737Z,99850.59
2023-04-19T05:22:02.188Z,99843.03
2023-04-19T05:22:34.418Z,99842.22
2023-04-19T05:23:11.681Z,99842.50
2023-04-19T05:23:43.956Z,99842.75
2023-04-19T05:24:20.455Z,99846.25
2023-04-19T05:24:52.860Z,99840.59
2023-04-19T05:25:25.132Z,99845.72
2023-04-19T05:26:03.188Z,99847.34
2023-04-19T05:26:35.618Z,99844.63
2023-04-19T05:27:12.391Z,99846.25
2023-04-19T05:27:44.616Z,99845.16
2023-04-19T05:28:17.191Z,99847.59
2023-04-19T05:29:08.138Z,99850.84
2023-04-19T05:29:51.652Z,99846.78
2023-04-19T05:30:26.730Z,99846.25
2023-04-19T05:30:59.256Z,99843.56
2023-04-19T05:31:36.646Z,99845.44
2023-04-19T05:32:32.257Z,99848.41
2023-04-19T05:33:07.037Z,99841.13
2023-04-19T05:33:39.308Z,99849.22
2023-04-19T05:34:14.295Z,99845.97
2023-04-19T05:34:47.413Z,99848.97
2023-04-19T05:35:21.646Z,99841.94
2023-04-19T05:35:56.602Z,99847.06
2023-04-19T05:36:28.967Z,99847.06
2023-04-19T05:37:01.483Z,99853.78
2023-04-19T05:37:36.972Z,99852.72
2023-04-19T05:38:09.149Z,99844.63
2023-04-19T05:38:41.532Z,99843.81
2023-04-19T05:39:17.209Z,99845.97
2023-04-19T05:39:49.462Z,99840.59
2023-04-19T05:40:24.523Z,99850.03
2023-04-19T05:40:59.770Z,99844.63
2023-04-19T05:41:34.544Z,99840.06
2023-04-19T05:42:09.348Z,99844.34
2023-04-19T05:42:41.691Z,99847.03
2023-04-19T05:43:15.329Z,99844.06
2023-04-19T05:43:50.666Z,99847.59
2023-04-19T05:44:22.900Z,99851.59
2023-04-19T05:44:55.252Z,99851.34
2023-04-19T05:45:30.841Z,99850.28
2023-04-19T05:46:03.149Z,99852.16
2023-04-19T05:46:36.474Z,99853.78
2023-04-19T05:47:12.309Z,99851.84
2023-04-19T05:48:05.667Z,99851.09
2023-04-19T05:48:59.071Z,99848.66
2023-04-19T05:50:10.199Z,99855.13
2023-04-19T05:50:49.566Z,99854.84
2023-04-19T05:51:40.536Z,99857.03
2023-04-19T05:52:34.358Z,99861.59
2023-04-19T05:53:07.355Z,99857.81
2023-04-19T05:53:42.414Z,99850.53
2023-04-19T05:54:14.889Z,99861.06
2023-04-19T05:54:50.455Z,99852.97
2023-04-19T05:55:25.572Z,99851.91
2023-04-19T05:55:58.363Z,99857.28
2023-04-19T05:56:33.486Z,99859.97
2023-04-19T05:57:08.375Z,99851.91
2023-04-19T05:57:40.682Z,99852.97
2023-04-19T05:58:12.933Z,99857.28
2023-04-19T05:58:47.766Z,99851.91
2023-04-19T05:59:20.157Z,99863.50
2023-04-19T05:59:52.345Z,99858.09
2023-04-19T06:00:32.731Z,99851.09
2023-04-19T06:01:12.961Z,99852.44
2023-04-19T06:01:47.793Z,99852.97
2023-04-19T06:02:20.824Z,99858.38
2023-04-19T06:02:53.405Z,99858.09
2023-04-19T06:03:31.239Z,99853.53
2023-04-19T06:04:05.194Z,99858.09
2023-04-19T06:04:37.977Z,99858.09
2023-04-19T06:05:13.669Z,99855.94
2023-04-19T06:05:46.352Z,99853.22
2023-04-19T06:06:18.734Z,99848.41
2023-04-19T06:06:53.628Z,99854.31
2023-04-19T06:07:31.925Z,99848.91
2023-04-19T06:08:09.667Z,99850.53
2023-04-19T06:08:41.963Z,99849.72
2023-04-19T06:09:18.681Z,99845.69
2023-04-19T06:09:51.350Z,99854.28
2023-04-19T06:10:31.289Z,99850.53
2023-04-19T06:11:20.268Z,99849.44
2023-04-19T06:12:02.473Z,99844.88
2023-04-19T06:12:35.082Z,99845.66
2023-04-19T06:13:07.526Z,99852.41
2023-04-19T06:13:42.428Z,99851.03
2023-04-19T06:14:15.154Z,99842.69
2023-04-19T06:14:50.348Z,99843.50
2023-04-19T06:15:22.913Z,99846.72
2023-04-19T06:15:55.312Z,99840.25
2023-04-19T06:16:30.280Z,99848.31
2023-04-19T06:17:02.509Z,99841.59
2023-04-19T06:17:34.736Z,99843.75
2023-04-19T06:18:19.037Z,99847.50
2023-04-19T06:18:52.374Z,99844.81
2023-04-19T06:19:27.454Z,99842.69
2023-04-19T06:19:59.687Z,99841.56
2023-04-19T06:20:31.888Z,99842.94
2023-04-19T06:21:07.080Z,99843.44
2023-04-19T06:21:39.354Z,99843.19
2023-04-19T06:22:14.316Z,99841.31
2023-04-19T06:22:46.704Z,99842.91
2023-04-19T06:23:21.572Z,99832.13
2023-04-19T06:23:53.900Z,99839.13
2023-04-19T06:24:26.267Z,99838.84
2023-04-19T06:25:01.177Z,99838.59
2023-04-19T06:25:33.507Z,99834.81
2023-04-19T06:26:06.028Z,99837.22
2023-04-19T06:26:41.307Z,99827.25
2023-04-19T06:27:17.066Z,99838.56
2023-04-19T06:27:49.338Z,99839.66
2023-04-19T06:28:24.076Z,99843.41
2023-04-19T06:28:56.333Z,99842.84
2023-04-19T06:29:31.119Z,99835.56
2023-04-19T06:30:03.477Z,99842.56
2023-04-19T06:30:35.855Z,99841.19
2023-04-19T06:31:10.794Z,99840.94
2023-04-19T06:31:43.197Z,99839.84
2023-04-19T06:32:18.179Z,99843.38
2023-04-19T06:32:50.635Z,99840.66
2023-04-19T06:33:23.069Z,99842.81
2023-04-19T06:33:57.846Z,99838.22
2023-04-19T06:34:30.092Z,99839.53
2023-04-19T06:35:02.614Z,99838.47
2023-04-19T06:35:37.423Z,99843.84
2023-04-19T06:36:10.932Z,99843.28
2023-04-19T06:36:45.717Z,99840.06
2023-04-19T06:37:17.973Z,99838.19
2023-04-19T06:37:52.729Z,99839.50
2023-04-19T06:38:25.053Z,99841.13
2023-04-19T06:38:57.311Z,99838.94
2023-04-19T06:39:32.107Z,99846.75
2023-04-19T06:40:05.603Z,99843.78
2023-04-19T06:40:37.890Z,99830.31
2023-04-19T06:41:12.884Z,99835.13
2023-04-19T06:41:45.193Z,99837.25
2023-04-19T06:42:27.623Z,99838.88
2023-04-19T06:43:00.047Z,99839.69
2023-04-19T06:43:35.018Z,99835.09
2023-04-19T06:44:07.506Z,99834.53
2023-04-19T06:44:39.813Z,99829.13
2023-04-19T06:45:15.298Z,99834.53
2023-04-19T06:45:47.676Z,99836.16
2023-04-19T06:46:20.093Z,99835.88
2023-04-19T06:46:54.896Z,99839.41
2023-04-19T06:47:27.518Z,99840.97
2023-04-19T06:47:59.738Z,99840.72